Amity, Indiana
Current Conditions -  °F | °C
As of 5:35 PM on Friday 24 Oct 2014 (Local Time) from K1II Reporting Station
Clear Clear  
Wind Chill: 64°   Ceiling: Unl
Heat Index: 64°   Visibility: 10mi
Dew Point: 50°   Wind: 5mph
Humidity: 59%   Direction: 240°WSW
Pressure: 30.04"   Gusts: NA
Location:  39.4841°N, 86.0843°W
Report Text: K1II 242135Z AUTO 24004KT 10SM CLR 18/10 A3004 RMK AO2
Loading
Personal Weather Stations






























Interactive Weather Map New forecast layout! Learn more

10-Day Weather Forecast

Advertisements
Track Severe Weather on mobile